createdAt,value
2024-02-27T00:01:51.513Z,41.00
2024-02-27T00:04:18.198Z,41.00
2024-02-27T00:06:45.123Z,41.00
2024-02-27T00:09:16.193Z,40.90
2024-02-27T00:11:44.485Z,40.90
2024-02-27T00:14:11.240Z,40.80
2024-02-27T00:16:38.236Z,40.80
2024-02-27T00:19:04.956Z,40.70
2024-02-27T00:21:31.877Z,40.80
2024-02-27T00:23:58.639Z,40.80
2024-02-27T00:26:25.336Z,40.80
2024-02-27T00:28:51.996Z,40.80
2024-02-27T00:31:18.655Z,40.80
2024-02-27T00:33:45.393Z,40.80
2024-02-27T00:36:12.101Z,40.80
2024-02-27T00:38:38.760Z,40.80
2024-02-27T00:41:05.707Z,40.90
2024-02-27T00:43:32.624Z,40.90
2024-02-27T00:45:59.298Z,40.90
2024-02-27T00:48:26.186Z,41.00
2024-02-27T00:50:53.007Z,41.00
2024-02-27T00:53:22.348Z,41.00
2024-02-27T00:55:49.096Z,41.00
2024-02-27T00:58:15.799Z,40.90
2024-02-27T01:00:42.600Z,41.00
2024-02-27T01:03:09.353Z,41.00
2024-02-27T01:05:36.089Z,41.10
2024-02-27T01:08:02.789Z,41.10
2024-02-27T01:10:29.429Z,41.10
2024-02-27T01:12:56.118Z,41.10
2024-02-27T01:15:22.841Z,41.10
2024-02-27T01:17:49.553Z,41.10
2024-02-27T01:20:16.298Z,41.20
2024-02-27T01:22:42.956Z,41.20
2024-02-27T01:25:12.599Z,41.30
2024-02-27T01:27:39.643Z,41.30
2024-02-27T01:30:06.842Z,41.40
2024-02-27T01:32:33.594Z,41.50
2024-02-27T01:35:00.551Z,41.70
2024-02-27T01:37:27.434Z,41.60
2024-02-27T01:39:54.092Z,41.70
2024-02-27T01:42:20.787Z,41.70
2024-02-27T01:44:52.208Z,41.70
2024-02-27T01:47:19.846Z,41.70
2024-02-27T01:49:48.563Z,41.80
2024-02-27T01:52:15.251Z,41.80
2024-02-27T01:54:42.861Z,41.80
2024-02-27T01:57:09.561Z,41.80
2024-02-27T01:59:36.248Z,41.70
2024-02-27T02:02:02.876Z,41.80
2024-02-27T02:04:29.663Z,41.80
2024-02-27T02:06:56.568Z,41.90
2024-02-27T02:09:23.365Z,41.90
2024-02-27T02:11:50.014Z,42.00
2024-02-27T02:14:16.725Z,42.00
2024-02-27T02:16:43.503Z,42.00
2024-02-27T02:19:10.486Z,42.10
2024-02-27T02:21:37.249Z,42.20
2024-02-27T02:24:04.240Z,42.20
2024-02-27T02:26:31.323Z,42.30
2024-02-27T02:28:58.236Z,42.30
2024-02-27T02:31:24.904Z,43.00
2024-02-27T02:33:51.701Z,42.50
2024-02-27T02:36:18.570Z,42.50
2024-02-27T02:38:45.252Z,42.60
2024-02-27T02:41:11.920Z,42.50
2024-02-27T02:43:38.565Z,42.60
2024-02-27T02:46:05.226Z,42.60
2024-02-27T02:48:32.040Z,42.70
2024-02-27T02:50:58.804Z,42.70
2024-02-27T02:53:25.692Z,42.80
2024-02-27T02:55:52.349Z,42.80
2024-02-27T02:58:19.048Z,42.80
2024-02-27T03:00:45.818Z,42.90
2024-02-27T03:03:13.437Z,43.00
2024-02-27T03:05:40.135Z,43.00
2024-02-27T03:08:07.049Z,43.10
2024-02-27T03:10:33.701Z,43.00
2024-02-27T03:13:00.476Z,43.10
2024-02-27T03:15:27.142Z,43.10
2024-02-27T03:17:54.153Z,43.20
2024-02-27T03:20:20.822Z,43.20
2024-02-27T03:22:47.473Z,43.30
2024-02-27T03:25:14.128Z,43.40
2024-02-27T03:27:41.267Z,43.60
2024-02-27T03:30:12.048Z,43.70
2024-02-27T03:32:38.906Z,43.80
2024-02-27T03:35:05.914Z,43.90
2024-02-27T03:37:32.599Z,44.10
2024-02-27T03:39:59.258Z,44.20
2024-02-27T03:42:26.134Z,44.20
2024-02-27T03:44:52.857Z,44.40
2024-02-27T03:47:19.568Z,44.60
2024-02-27T03:49:46.289Z,44.70
2024-02-27T03:52:13.001Z,44.90
2024-02-27T03:54:39.795Z,45.10
2024-02-27T03:57:06.704Z,45.40
2024-02-27T03:59:33.413Z,45.40
2024-02-27T04:02:00.059Z,45.60
2024-02-27T04:04:26.733Z,45.70
2024-02-27T04:06:53.465Z,45.80
2024-02-27T04:09:20.262Z,46.00
2024-02-27T04:11:46.970Z,46.10
2024-02-27T04:14:13.629Z,46.20
2024-02-27T04:16:41.911Z,46.20
2024-02-27T04:19:08.692Z,46.30
2024-02-27T04:21:35.509Z,46.30
2024-02-27T04:24:02.170Z,46.40
2024-02-27T04:26:28.826Z,46.70
2024-02-27T04:28:55.471Z,46.70
2024-02-27T04:31:22.143Z,46.80
2024-02-27T04:33:48.840Z,46.70
2024-02-27T04:36:15.630Z,46.80
2024-02-27T04:38:43.283Z,47.00
2024-02-27T04:41:10.151Z,47.10
2024-02-27T04:43:37.835Z,47.20
2024-02-27T04:46:04.857Z,47.40
2024-02-27T04:48:31.683Z,47.50
2024-02-27T04:50:58.489Z,47.60
2024-02-27T04:53:25.147Z,47.70
2024-02-27T04:55:51.785Z,47.70
2024-02-27T04:58:18.430Z,47.80
2024-02-27T05:00:45.134Z,48.00
2024-02-27T05:03:11.914Z,48.10
2024-02-27T05:05:38.655Z,48.20
2024-02-27T05:08:05.671Z,48.20
2024-02-27T05:10:33.308Z,48.30
2024-02-27T05:13:01.587Z,48.40
2024-02-27T05:15:28.317Z,48.40
2024-02-27T05:17:55.045Z,48.50
2024-02-27T05:20:21.764Z,48.60
2024-02-27T05:22:48.419Z,48.60
2024-02-27T05:25:15.270Z,48.70
2024-02-27T05:27:42.006Z,48.70
2024-02-27T05:30:09.162Z,48.80
2024-02-27T05:32:35.903Z,48.80
2024-02-27T05:35:02.688Z,48.80
2024-02-27T05:37:30.149Z,48.80
2024-02-27T05:39:56.805Z,48.90
2024-02-27T05:42:24.121Z,49.00
2024-02-27T05:44:50.854Z,49.00
2024-02-27T05:47:17.493Z,49.00
2024-02-27T05:49:44.163Z,48.90
2024-02-27T05:52:10.838Z,48.90
2024-02-27T05:54:37.617Z,49.00
2024-02-27T05:57:05.788Z,48.90
2024-02-27T05:59:32.474Z,49.10
2024-02-27T06:01:59.125Z,49.10
2024-02-27T06:04:26.168Z,49.10
2024-02-27T06:06:52.988Z,49.00
2024-02-27T06:09:19.813Z,49.00
2024-02-27T06:11:46.563Z,48.90
2024-02-27T06:14:14.383Z,49.00
2024-02-27T06:16:41.437Z,49.00
2024-02-27T06:19:08.584Z,49.00
2024-02-27T06:21:54.302Z,49.00
2024-02-27T06:24:21.091Z,49.20
2024-02-27T06:26:47.757Z,49.20
2024-02-27T06:29:14.437Z,49.30
2024-02-27T06:31:41.201Z,49.20
2024-02-27T06:34:07.981Z,49.20
2024-02-27T06:36:34.767Z,49.10
2024-02-27T06:39:02.011Z,49.20
2024-02-27T06:41:28.740Z,49.20
2024-02-27T06:43:55.396Z,49.10
2024-02-27T06:46:22.354Z,49.10
2024-02-27T06:48:49.695Z,49.10
2024-02-27T06:51:16.417Z,49.10
2024-02-27T06:53:43.540Z,49.00
2024-02-27T06:56:10.203Z,48.90
2024-02-27T06:58:36.850Z,49.00
2024-02-27T07:01:03.991Z,49.00
2024-02-27T07:03:30.720Z,48.90
2024-02-27T07:05:58.914Z,49.00
2024-02-27T07:08:25.726Z,48.90
2024-02-27T07:10:52.449Z,48.80
2024-02-27T07:13:19.493Z,48.80
2024-02-27T07:15:47.989Z,48.70
2024-02-27T07:18:17.093Z,48.70
2024-02-27T07:20:44.343Z,48.70
2024-02-27T07:23:11.003Z,48.60
2024-02-27T07:25:37.974Z,48.60
2024-02-27T07:28:05.754Z,48.50
2024-02-27T07:30:32.532Z,49.10
2024-02-27T07:32:59.299Z,48.40
2024-02-27T07:35:26.106Z,48.40
2024-02-27T07:37:53.670Z,48.40
2024-02-27T07:40:20.360Z,48.40
2024-02-27T07:42:47.048Z,48.30
2024-02-27T07:45:13.862Z,48.30
2024-02-27T07:47:41.639Z,48.20
2024-02-27T07:50:09.156Z,48.20
2024-02-27T07:52:35.844Z,48.30
2024-02-27T07:55:02.575Z,48.30
2024-02-27T07:57:29.363Z,48.30
2024-02-27T07:59:56.099Z,48.20
2024-02-27T08:02:24.494Z,48.30
2024-02-27T08:04:51.132Z,48.20
2024-02-27T08:07:17.826Z,48.20
2024-02-27T08:09:44.526Z,48.20
2024-02-27T08:12:11.728Z,47.90
2024-02-27T08:14:38.478Z,47.90
2024-02-27T08:17:07.010Z,47.80
2024-02-27T08:19:34.324Z,47.80
2024-02-27T08:22:05.142Z,47.70
2024-02-27T08:24:33.047Z,47.60
2024-02-27T08:27:04.427Z,47.50
2024-02-27T08:29:33.381Z,47.60
2024-02-27T08:32:00.038Z,47.40
2024-02-27T08:34:26.842Z,47.30
2024-02-27T08:36:53.888Z,47.30
2024-02-27T08:39:21.094Z,47.20
2024-02-27T08:41:47.952Z,47.10
2024-02-27T08:44:14.650Z,47.00
2024-02-27T08:46:41.324Z,46.90
2024-02-27T08:49:08.350Z,46.90
2024-02-27T08:51:35.505Z,46.90
2024-02-27T08:54:02.805Z,46.70
2024-02-27T08:56:29.531Z,46.60
2024-02-27T08:58:56.186Z,46.60
2024-02-27T09:01:22.838Z,46.50
2024-02-27T09:03:50.225Z,46.40
2024-02-27T09:06:16.986Z,46.20
2024-02-27T09:08:44.011Z,45.90
2024-02-27T09:11:10.737Z,46.20
2024-02-27T09:13:37.431Z,45.40
2024-02-27T09:16:04.170Z,44.90
2024-02-27T09:18:31.011Z,44.30
2024-02-27T09:20:57.918Z,44.10
2024-02-27T09:23:25.781Z,44.00
2024-02-27T09:25:52.831Z,43.80
2024-02-27T09:28:19.487Z,43.80
2024-02-27T09:30:46.347Z,43.60
2024-02-27T09:33:13.313Z,43.50
2024-02-27T09:35:41.489Z,43.50
2024-02-27T09:38:08.165Z,43.50
2024-02-27T09:40:34.790Z,43.50
2024-02-27T09:43:02.325Z,43.40
2024-02-27T09:45:31.440Z,43.30
2024-02-27T09:47:59.058Z,43.40
2024-02-27T09:50:25.964Z,43.40
2024-02-27T09:52:53.342Z,43.50
2024-02-27T09:55:21.569Z,43.50
2024-02-27T09:57:49.297Z,43.60
2024-02-27T10:00:18.170Z,43.70
2024-02-27T10:02:46.920Z,43.80
2024-02-27T10:05:14.011Z,43.80
2024-02-27T10:07:40.772Z,43.60
2024-02-27T10:10:08.460Z,43.70
2024-02-27T10:12:35.261Z,43.90
2024-02-27T10:15:02.010Z,43.90
2024-02-27T10:17:29.058Z,43.90
2024-02-27T10:19:55.887Z,43.90
2024-02-27T10:22:22.783Z,43.80
2024-02-27T10:25:03.710Z,43.70
2024-02-27T10:27:32.474Z,43.70
2024-02-27T10:29:59.175Z,43.70
2024-02-27T10:32:26.039Z,43.70
2024-02-27T10:34:55.399Z,43.60
2024-02-27T10:37:25.281Z,43.70
2024-02-27T10:39:52.385Z,43.60
2024-02-27T10:42:19.078Z,43.60
2024-02-27T10:44:45.803Z,43.60
2024-02-27T10:47:12.446Z,43.60
2024-02-27T10:49:39.222Z,43.60
2024-02-27T10:52:06.022Z,43.50
2024-02-27T10:54:32.769Z,43.60
2024-02-27T10:56:59.455Z,43.60
2024-02-27T10:59:28.822Z,43.70
2024-02-27T11:01:56.767Z,43.60
2024-02-27T11:04:24.809Z,43.60
2024-02-27T11:06:52.240Z,43.50
2024-02-27T11:09:27.632Z,43.50
2024-02-27T11:11:57.015Z,43.60
2024-02-27T11:14:25.592Z,43.50
2024-02-27T11:16:55.732Z,43.60
2024-02-27T11:19:25.870Z,43.50
2024-02-27T11:21:53.413Z,43.30
2024-02-27T11:24:20.481Z,43.40
2024-02-27T11:26:47.212Z,43.40
2024-02-27T11:29:14.513Z,43.30
2024-02-27T11:31:41.205Z,43.20
2024-02-27T11:34:08.296Z,43.20
2024-02-27T11:36:35.217Z,43.20
2024-02-27T11:39:01.940Z,43.20
2024-02-27T11:41:28.718Z,43.30
2024-02-27T11:43:55.912Z,43.40
2024-02-27T11:46:31.436Z,43.50
2024-02-27T11:49:02.031Z,43.70
2024-02-27T11:51:31.540Z,43.50
2024-02-27T11:53:58.387Z,43.10
2024-02-27T11:56:25.067Z,42.70
2024-02-27T11:58:53.277Z,42.30
2024-02-27T12:01:20.319Z,42.00
2024-02-27T12:03:47.486Z,41.70
2024-02-27T12:06:14.324Z,41.20
2024-02-27T12:08:50.798Z,40.80
2024-02-27T12:11:18.247Z,40.40
2024-02-27T12:13:46.714Z,40.30
2024-02-27T12:16:21.578Z,40.20
2024-02-27T12:18:49.345Z,40.20
2024-02-27T12:21:28.201Z,39.90
2024-02-27T12:24:16.000Z,39.70
2024-02-27T12:26:46.246Z,39.70
2024-02-27T12:29:13.875Z,39.70
2024-02-27T12:31:40.570Z,39.90
2024-02-27T12:34:07.709Z,40.10
2024-02-27T12:36:35.185Z,40.00
2024-02-27T12:39:02.049Z,40.10
2024-02-27T12:41:28.758Z,40.00
2024-02-27T12:43:55.397Z,40.00
2024-02-27T12:46:26.149Z,40.30
2024-02-27T12:48:55.237Z,40.30
2024-02-27T12:51:22.036Z,40.50
2024-02-27T12:53:48.706Z,40.50
2024-02-27T12:56:16.200Z,40.60
2024-02-27T12:58:42.872Z,40.70
2024-02-27T13:01:09.680Z,40.60
2024-02-27T13:03:37.204Z,40.70
2024-02-27T13:06:05.954Z,40.80
2024-02-27T13:08:32.927Z,40.70
2024-02-27T13:10:59.689Z,40.80
2024-02-27T13:13:33.942Z,40.80
2024-02-27T13:16:01.092Z,40.90
2024-02-27T13:18:28.085Z,40.90
2024-02-27T13:20:54.936Z,41.00
2024-02-27T13:23:26.277Z,41.10
2024-02-27T13:26:00.494Z,41.00
2024-02-27T13:28:28.925Z,41.20
2024-02-27T13:30:56.829Z,41.20
2024-02-27T13:33:24.060Z,41.40
2024-02-27T13:35:50.839Z,41.50
2024-02-27T13:38:17.515Z,41.60
2024-02-27T13:40:46.720Z,41.60
2024-02-27T13:43:14.523Z,41.60
2024-02-27T13:45:41.305Z,41.60
2024-02-27T13:48:10.232Z,41.60
2024-02-27T13:50:37.266Z,41.60
2024-02-27T13:53:04.151Z,41.70
2024-02-27T13:55:30.804Z,41.70
2024-02-27T13:57:57.481Z,41.70
2024-02-27T14:00:24.382Z,41.90
2024-02-27T14:02:51.130Z,42.10
2024-02-27T14:05:17.899Z,42.30
2024-02-27T14:07:44.607Z,42.20
2024-02-27T14:10:11.300Z,42.20
2024-02-27T14:12:38.785Z,42.10
2024-02-27T14:15:07.079Z,42.30
2024-02-27T14:17:35.545Z,42.30
2024-02-27T14:20:02.286Z,42.20
2024-02-27T14:22:29.039Z,42.10
2024-02-27T14:24:56.482Z,42.10
2024-02-27T14:27:23.470Z,42.20
2024-02-27T14:29:50.174Z,42.10
2024-02-27T14:32:17.524Z,42.20
2024-02-27T14:34:44.314Z,42.20
2024-02-27T14:37:11.115Z,42.30
2024-02-27T14:39:37.869Z,42.30
2024-02-27T14:42:04.964Z,42.30
2024-02-27T14:44:31.701Z,42.30
2024-02-27T14:46:58.367Z,42.10
2024-02-27T14:49:25.110Z,42.10
2024-02-27T14:51:56.184Z,42.00
2024-02-27T14:54:23.355Z,42.00
2024-02-27T14:56:50.178Z,42.00
2024-02-27T14:59:17.148Z,42.10
2024-02-27T15:01:53.324Z,42.10
2024-02-27T15:04:24.168Z,42.30
2024-02-27T15:06:51.039Z,42.30
2024-02-27T15:09:18.264Z,42.40
2024-02-27T15:11:44.971Z,42.40
2024-02-27T15:14:11.687Z,42.50
2024-02-27T15:16:38.351Z,42.40
2024-02-27T15:19:05.192Z,42.50
2024-02-27T15:21:32.058Z,42.50
2024-02-27T15:23:58.982Z,42.60
2024-02-27T15:26:25.786Z,42.60
2024-02-27T15:28:52.470Z,42.60
2024-02-27T15:31:19.226Z,42.80
2024-02-27T15:33:46.180Z,42.80
2024-02-27T15:36:13.979Z,42.80
2024-02-27T15:38:40.780Z,42.80
2024-02-27T15:41:07.607Z,42.90
2024-02-27T15:43:34.622Z,43.00
2024-02-27T15:46:01.286Z,43.00
2024-02-27T15:48:28.153Z,43.10
2024-02-27T15:50:54.902Z,43.00
2024-02-27T15:53:21.564Z,43.10
2024-02-27T15:55:48.274Z,43.20
2024-02-27T15:58:14.940Z,43.20
2024-02-27T16:00:41.685Z,43.30
2024-02-27T16:03:16.871Z,43.40
2024-02-27T16:05:43.712Z,43.40
2024-02-27T16:08:10.373Z,43.40
2024-02-27T16:10:37.141Z,43.50
2024-02-27T16:13:03.878Z,43.60
2024-02-27T16:15:31.190Z,43.70
2024-02-27T16:17:59.613Z,43.80
2024-02-27T16:20:27.281Z,43.80
2024-02-27T16:22:53.947Z,43.90
2024-02-27T16:25:20.613Z,43.90
2024-02-27T16:27:47.400Z,44.00
2024-02-27T16:30:16.148Z,44.10
2024-02-27T16:32:45.332Z,44.20
2024-02-27T16:35:12.959Z,44.30
2024-02-27T16:37:42.253Z,44.40
2024-02-27T16:40:09.459Z,44.50
2024-02-27T16:42:36.154Z,44.60
2024-02-27T16:45:02.866Z,44.60
2024-02-27T16:47:30.035Z,44.70
2024-02-27T16:49:57.626Z,45.00
2024-02-27T16:52:24.344Z,44.90
2024-02-27T16:54:52.210Z,45.00
2024-02-27T16:57:22.121Z,45.10
2024-02-27T16:59:48.834Z,45.10
2024-02-27T17:02:15.468Z,45.10
2024-02-27T17:04:42.171Z,45.10
2024-02-27T17:07:09.065Z,45.10
2024-02-27T17:09:35.835Z,45.10
2024-02-27T17:12:02.890Z,45.20
2024-02-27T17:14:31.119Z,45.30
2024-02-27T17:16:57.758Z,45.30
2024-02-27T17:19:24.724Z,45.40
2024-02-27T17:21:51.533Z,45.50
2024-02-27T17:24:18.351Z,45.50
2024-02-27T17:26:45.008Z,45.60
2024-02-27T17:29:11.705Z,45.60
2024-02-27T17:31:38.357Z,45.80
2024-02-27T17:34:05.263Z,45.70
2024-02-27T17:36:37.750Z,45.80
2024-02-27T17:39:04.454Z,45.90
2024-02-27T17:41:31.089Z,45.80
2024-02-27T17:43:58.345Z,45.80
2024-02-27T17:46:25.074Z,45.90
2024-02-27T17:48:51.802Z,45.90
2024-02-27T17:51:18.569Z,46.00
2024-02-27T17:53:45.285Z,46.00
2024-02-27T17:56:15.058Z,46.00
2024-02-27T17:58:42.008Z,46.00
2024-02-27T18:03:42.908Z,45.90
2024-02-27T18:06:09.696Z,45.90
2024-02-27T18:08:36.387Z,45.90
2024-02-27T18:11:04.325Z,45.90
2024-02-27T18:13:31.003Z,45.80
2024-02-27T18:15:58.570Z,45.80
2024-02-27T18:18:25.341Z,45.80
2024-02-27T18:20:52.085Z,45.80
2024-02-27T18:23:19.608Z,45.80
2024-02-27T18:25:46.243Z,46.00
2024-02-27T18:28:12.913Z,45.90
2024-02-27T18:30:39.878Z,45.90
2024-02-27T18:33:07.586Z,45.80
2024-02-27T18:35:35.570Z,45.80
2024-02-27T18:38:03.679Z,45.90
2024-02-27T18:40:33.251Z,45.90
2024-02-27T18:43:00.647Z,45.90
2024-02-27T18:45:27.923Z,45.90
2024-02-27T18:47:54.748Z,45.90
2024-02-27T18:50:21.466Z,45.90
2024-02-27T18:52:49.665Z,45.90
2024-02-27T18:55:17.130Z,45.90
2024-02-27T18:57:44.489Z,45.90
2024-02-27T19:00:12.043Z,46.10
2024-02-27T19:02:39.157Z,46.10
2024-02-27T19:05:08.894Z,46.20
2024-02-27T19:07:35.598Z,46.20
2024-02-27T19:10:04.316Z,46.20
2024-02-27T19:12:32.185Z,46.30
2024-02-27T19:14:59.108Z,46.30
2024-02-27T19:17:25.884Z,46.40
2024-02-27T19:19:52.611Z,46.40
2024-02-27T19:22:20.133Z,46.50
2024-02-27T19:24:47.041Z,46.50
2024-02-27T19:27:13.981Z,46.50
2024-02-27T19:29:40.928Z,46.50
2024-02-27T19:32:08.374Z,46.50
2024-02-27T19:34:38.677Z,46.40
2024-02-27T19:37:05.696Z,46.50
2024-02-27T19:39:32.637Z,46.40
2024-02-27T19:41:59.640Z,46.40
2024-02-27T19:44:26.389Z,47.00
2024-02-27T19:46:53.158Z,46.40
2024-02-27T19:49:19.929Z,46.40
2024-02-27T19:51:46.820Z,46.40
2024-02-27T19:54:13.641Z,46.40
2024-02-27T19:56:42.074Z,46.30
2024-02-27T19:59:08.723Z,46.30
2024-02-27T20:01:35.458Z,46.30
2024-02-27T20:04:02.197Z,46.30
2024-02-27T20:06:28.897Z,46.40
2024-02-27T20:08:55.601Z,46.30
2024-02-27T20:11:23.185Z,46.30
2024-02-27T20:13:50.043Z,46.30
2024-02-27T20:16:17.203Z,46.30
2024-02-27T20:18:45.603Z,46.40
2024-02-27T20:21:12.794Z,46.40
2024-02-27T20:23:41.157Z,46.40
2024-02-27T20:26:07.945Z,46.40
2024-02-27T20:28:34.811Z,46.40
2024-02-27T20:31:01.526Z,46.30
2024-02-27T20:33:28.475Z,46.20
2024-02-27T20:35:55.169Z,46.30
2024-02-27T20:38:21.988Z,46.20
2024-02-27T20:40:48.715Z,46.30
2024-02-27T20:43:15.406Z,46.20
2024-02-27T20:45:42.459Z,46.30
2024-02-27T20:48:10.187Z,46.40
2024-02-27T20:50:37.451Z,46.40
2024-02-27T20:53:04.291Z,46.50
2024-02-27T20:55:30.946Z,46.40
2024-02-27T20:57:58.367Z,46.40
2024-02-27T21:00:25.285Z,46.40
2024-02-27T21:02:52.393Z,46.60
2024-02-27T21:05:19.239Z,46.50
2024-02-27T21:07:45.944Z,46.40
2024-02-27T21:10:12.704Z,46.50
2024-02-27T21:12:42.178Z,46.50
2024-02-27T21:15:09.880Z,46.50
2024-02-27T21:17:36.774Z,46.50
2024-02-27T21:20:04.554Z,46.50
2024-02-27T21:22:31.228Z,46.50
2024-02-27T21:24:57.871Z,46.60
2024-02-27T21:27:24.560Z,46.60
2024-02-27T21:29:51.243Z,46.60
2024-02-27T21:32:17.919Z,46.50
2024-02-27T21:34:44.577Z,46.60
2024-02-27T21:37:11.506Z,46.60
2024-02-27T21:39:38.309Z,47.60
2024-02-27T21:42:05.198Z,47.70
2024-02-27T21:44:32.447Z,47.70
2024-02-27T21:46:59.268Z,47.80
2024-02-27T21:49:26.057Z,47.70
2024-02-27T21:51:59.446Z,46.80
2024-02-27T21:54:30.215Z,46.80
2024-02-27T21:56:56.940Z,46.80
2024-02-27T21:59:23.610Z,46.80
2024-02-27T22:01:50.378Z,46.80
2024-02-27T22:04:17.154Z,46.70
2024-02-27T22:06:43.959Z,46.80
2024-02-27T22:09:13.724Z,46.80
2024-02-27T22:11:40.659Z,47.70
2024-02-27T22:14:07.341Z,47.70
2024-02-27T22:16:34.159Z,47.80
2024-02-27T22:19:01.369Z,47.70
2024-02-27T22:21:28.117Z,46.80
2024-02-27T22:23:54.863Z,46.80
2024-02-27T22:26:21.503Z,46.70
2024-02-27T22:28:48.216Z,46.70
2024-02-27T22:31:14.909Z,46.70
2024-02-27T22:33:41.636Z,46.70
2024-02-27T22:36:08.498Z,46.80
2024-02-27T22:38:35.253Z,46.80
2024-02-27T22:41:03.787Z,46.80
2024-02-27T22:43:30.478Z,46.80
2024-02-27T22:45:57.195Z,46.90
2024-02-27T22:48:24.163Z,46.90
2024-02-27T22:50:50.871Z,46.90
2024-02-27T22:53:17.554Z,46.90
2024-02-27T22:55:44.267Z,46.90
2024-02-27T22:58:10.909Z,46.90
2024-02-27T23:00:38.069Z,47.00
2024-02-27T23:03:04.992Z,47.00
2024-02-27T23:05:31.698Z,47.00
2024-02-27T23:07:58.344Z,47.00
2024-02-27T23:10:25.024Z,47.00
2024-02-27T23:12:51.879Z,47.10
2024-02-27T23:15:19.128Z,47.10
2024-02-27T23:17:46.464Z,46.90
2024-02-27T23:20:13.151Z,47.20
2024-02-27T23:22:43.392Z,47.10
2024-02-27T23:25:10.363Z,47.20
2024-02-27T23:27:37.115Z,47.20
2024-02-27T23:30:04.555Z,47.20
2024-02-27T23:32:31.639Z,47.30
2024-02-27T23:34:58.305Z,47.20
2024-02-27T23:37:25.029Z,47.20
2024-02-27T23:39:51.848Z,47.20
2024-02-27T23:42:18.626Z,47.20
2024-02-27T23:44:45.295Z,47.20
2024-02-27T23:47:13.367Z,47.20
2024-02-27T23:49:42.481Z,47.40
2024-02-27T23:52:09.301Z,48.30
2024-02-27T23:54:41.505Z,48.40
2024-02-27T23:57:09.009Z,48.50
2024-02-27T23:59:36.249Z,48.50
